sensor_id;sensor_type;location;lat;lon;timestamp;P1;durP1;ratioP1;P2;durP2;ratioP2
48667;SDS011;34453;52.198;5.004;2023-05-19T00:01:36;7.38;;;3.53;;
48667;SDS011;34453;52.198;5.004;2023-05-19T00:04:01;17.25;;;3.85;;
48667;SDS011;34453;52.198;5.004;2023-05-19T00:06:30;5.07;;;3.50;;
48667;SDS011;34453;52.198;5.004;2023-05-19T00:11:24;7.93;;;3.42;;
48667;SDS011;34453;52.198;5.004;2023-05-19T00:13:51;11.70;;;3.22;;
48667;SDS011;34453;52.198;5.004;2023-05-19T00:16:18;6.57;;;3.10;;
48667;SDS011;34453;52.198;5.004;2023-05-19T00:18:43;12.90;;;3.30;;
48667;SDS011;34453;52.198;5.004;2023-05-19T00:21:09;10.38;;;3.78;;
48667;SDS011;34453;52.198;5.004;2023-05-19T00:23:34;4.88;;;3.35;;
48667;SDS011;34453;52.198;5.004;2023-05-19T00:26:00;6.82;;;3.20;;
48667;SDS011;34453;52.198;5.004;2023-05-19T00:28:25;7.88;;;3.28;;
48667;SDS011;34453;52.198;5.004;2023-05-19T00:30:50;8.43;;;3.47;;
48667;SDS011;34453;52.198;5.004;2023-05-19T00:33:16;7.28;;;3.15;;
48667;SDS011;34453;52.198;5.004;2023-05-19T00:35:41;8.10;;;3.40;;
48667;SDS011;34453;52.198;5.004;2023-05-19T00:38:07;3.95;;;2.63;;
48667;SDS011;34453;52.198;5.004;2023-05-19T00:40:33;9.20;;;3.55;;
48667;SDS011;34453;52.198;5.004;2023-05-19T00:43:00;13.35;;;3.13;;
48667;SDS011;34453;52.198;5.004;2023-05-19T00:45:26;10.27;;;3.95;;
48667;SDS011;34453;52.198;5.004;2023-05-19T00:47:52;9.40;;;3.35;;
48667;SDS011;34453;52.198;5.004;2023-05-19T00:50:18;3.88;;;3.58;;
48667;SDS011;34453;52.198;5.004;2023-05-19T00:52:43;7.75;;;2.90;;
48667;SDS011;34453;52.198;5.004;2023-05-19T00:55:09;11.13;;;3.40;;
48667;SDS011;34453;52.198;5.004;2023-05-19T00:57:35;5.05;;;4.15;;
48667;SDS011;34453;52.198;5.004;2023-05-19T01:00:01;6.55;;;3.58;;
48667;SDS011;34453;52.198;5.004;2023-05-19T01:02:27;10.30;;;3.53;;
48667;SDS011;34453;52.198;5.004;2023-05-19T01:04:53;4.25;;;3.22;;
48667;SDS011;34453;52.198;5.004;2023-05-19T01:07:21;7.68;;;3.70;;
48667;SDS011;34453;52.198;5.004;2023-05-19T01:09:47;6.13;;;2.85;;
48667;SDS011;34453;52.198;5.004;2023-05-19T01:12:13;8.73;;;3.38;;
48667;SDS011;34453;52.198;5.004;2023-05-19T01:14:40;5.78;;;3.95;;
48667;SDS011;34453;52.198;5.004;2023-05-19T01:17:07;7.32;;;3.60;;
48667;SDS011;34453;52.198;5.004;2023-05-19T01:31:10;8.70;;;4.35;;
48667;SDS011;34453;52.198;5.004;2023-05-19T01:33:36;8.75;;;3.42;;
48667;SDS011;34453;52.198;5.004;2023-05-19T01:36:05;8.68;;;3.53;;
48667;SDS011;34453;52.198;5.004;2023-05-19T01:38:32;6.90;;;3.47;;
48667;SDS011;34453;52.198;5.004;2023-05-19T01:40:58;9.52;;;3.58;;
48667;SDS011;34453;52.198;5.004;2023-05-19T01:43:25;6.15;;;4.43;;
48667;SDS011;34453;52.198;5.004;2023-05-19T01:45:53;7.30;;;3.20;;
48667;SDS011;34453;52.198;5.004;2023-05-19T01:48:19;6.85;;;3.83;;
48667;SDS011;34453;52.198;5.004;2023-05-19T01:50:45;13.32;;;4.47;;
48667;SDS011;34453;52.198;5.004;2023-05-19T01:53:11;12.35;;;3.10;;
48667;SDS011;34453;52.198;5.004;2023-05-19T01:55:47;7.25;;;3.60;;
48667;SDS011;34453;52.198;5.004;2023-05-19T01:58:20;7.07;;;2.95;;
48667;SDS011;34453;52.198;5.004;2023-05-19T02:00:52;12.38;;;4.05;;
48667;SDS011;34453;52.198;5.004;2023-05-19T02:03:28;5.60;;;3.75;;
48667;SDS011;34453;52.198;5.004;2023-05-19T02:06:21;5.63;;;3.22;;
48667;SDS011;34453;52.198;5.004;2023-05-19T02:09:17;14.20;;;3.72;;
48667;SDS011;34453;52.198;5.004;2023-05-19T02:14:36;7.13;;;4.03;;
48667;SDS011;34453;52.198;5.004;2023-05-19T02:17:05;6.32;;;4.47;;
48667;SDS011;34453;52.198;5.004;2023-05-19T02:19:33;4.40;;;3.80;;
48667;SDS011;34453;52.198;5.004;2023-05-19T02:22:03;4.65;;;4.00;;
48667;SDS011;34453;52.198;5.004;2023-05-19T02:24:28;7.80;;;3.50;;
48667;SDS011;34453;52.198;5.004;2023-05-19T02:26:54;4.50;;;4.00;;
48667;SDS011;34453;52.198;5.004;2023-05-19T02:29:19;7.55;;;4.13;;
48667;SDS011;34453;52.198;5.004;2023-05-19T02:31:45;14.15;;;4.90;;
48667;SDS011;34453;52.198;5.004;2023-05-19T02:34:11;7.00;;;4.22;;
48667;SDS011;34453;52.198;5.004;2023-05-19T02:36:37;17.48;;;4.85;;
48667;SDS011;34453;52.198;5.004;2023-05-19T02:39:05;10.20;;;4.28;;
48667;SDS011;34453;52.198;5.004;2023-05-19T02:41:31;7.05;;;4.07;;
48667;SDS011;34453;52.198;5.004;2023-05-19T02:43:56;8.55;;;4.47;;
48667;SDS011;34453;52.198;5.004;2023-05-19T02:46:22;9.02;;;4.47;;
48667;SDS011;34453;52.198;5.004;2023-05-19T02:48:48;7.60;;;4.38;;
48667;SDS011;34453;52.198;5.004;2023-05-19T02:51:14;10.55;;;5.88;;
48667;SDS011;34453;52.198;5.004;2023-05-19T02:53:39;8.65;;;4.32;;
48667;SDS011;34453;52.198;5.004;2023-05-19T02:56:05;11.30;;;4.70;;
48667;SDS011;34453;52.198;5.004;2023-05-19T02:58:30;6.75;;;4.45;;
48667;SDS011;34453;52.198;5.004;2023-05-19T03:00:56;9.25;;;4.40;;
48667;SDS011;34453;52.198;5.004;2023-05-19T03:03:21;10.23;;;4.93;;
48667;SDS011;34453;52.198;5.004;2023-05-19T03:05:47;13.95;;;5.13;;
48667;SDS011;34453;52.198;5.004;2023-05-19T03:08:12;8.90;;;4.43;;
48667;SDS011;34453;52.198;5.004;2023-05-19T03:10:38;10.38;;;4.97;;
48667;SDS011;34453;52.198;5.004;2023-05-19T03:13:04;8.63;;;4.35;;
48667;SDS011;34453;52.198;5.004;2023-05-19T03:15:29;6.47;;;5.30;;
48667;SDS011;34453;52.198;5.004;2023-05-19T03:17:55;9.32;;;4.10;;
48667;SDS011;34453;52.198;5.004;2023-05-19T03:20:21;22.77;;;6.97;;
48667;SDS011;34453;52.198;5.004;2023-05-19T03:22:46;13.85;;;5.13;;
48667;SDS011;34453;52.198;5.004;2023-05-19T03:25:12;10.23;;;4.95;;
48667;SDS011;34453;52.198;5.004;2023-05-19T03:27:37;11.07;;;5.53;;
48667;SDS011;34453;52.198;5.004;2023-05-19T03:30:03;9.05;;;5.18;;
48667;SDS011;34453;52.198;5.004;2023-05-19T03:32:29;7.85;;;4.97;;
48667;SDS011;34453;52.198;5.004;2023-05-19T03:34:56;10.10;;;6.15;;
48667;SDS011;34453;52.198;5.004;2023-05-19T03:37:22;11.60;;;5.47;;
48667;SDS011;34453;52.198;5.004;2023-05-19T03:39:47;12.27;;;5.35;;
48667;SDS011;34453;52.198;5.004;2023-05-19T03:42:13;12.95;;;6.15;;
48667;SDS011;34453;52.198;5.004;2023-05-19T03:44:38;5.32;;;4.68;;
48667;SDS011;34453;52.198;5.004;2023-05-19T03:47:04;12.48;;;5.20;;
48667;SDS011;34453;52.198;5.004;2023-05-19T03:49:30;9.60;;;5.13;;
48667;SDS011;34453;52.198;5.004;2023-05-19T03:51:55;10.10;;;6.40;;
48667;SDS011;34453;52.198;5.004;2023-05-19T03:54:20;7.07;;;5.55;;
48667;SDS011;34453;52.198;5.004;2023-05-19T03:56:46;8.70;;;5.78;;
48667;SDS011;34453;52.198;5.004;2023-05-19T03:59:12;12.35;;;5.10;;
48667;SDS011;34453;52.198;5.004;2023-05-19T04:01:37;10.20;;;5.80;;
48667;SDS011;34453;52.198;5.004;2023-05-19T04:04:03;7.90;;;4.95;;
48667;SDS011;34453;52.198;5.004;2023-05-19T04:06:28;11.43;;;5.07;;
48667;SDS011;34453;52.198;5.004;2023-05-19T04:08:54;9.50;;;6.18;;
48667;SDS011;34453;52.198;5.004;2023-05-19T04:11:20;15.43;;;5.50;;
48667;SDS011;34453;52.198;5.004;2023-05-19T04:13:45;9.52;;;5.95;;
48667;SDS011;34453;52.198;5.004;2023-05-19T04:16:11;11.57;;;5.90;;
48667;SDS011;34453;52.198;5.004;2023-05-19T04:18:36;9.27;;;6.72;;
48667;SDS011;34453;52.198;5.004;2023-05-19T04:21:02;8.18;;;5.38;;
48667;SDS011;34453;52.198;5.004;2023-05-19T04:23:28;9.13;;;6.05;;
48667;SDS011;34453;52.198;5.004;2023-05-19T04:25:53;11.02;;;5.30;;
48667;SDS011;34453;52.198;5.004;2023-05-19T04:28:21;8.27;;;5.63;;
48667;SDS011;34453;52.198;5.004;2023-05-19T04:30:47;8.20;;;5.50;;
48667;SDS011;34453;52.198;5.004;2023-05-19T04:33:14;11.35;;;5.90;;
48667;SDS011;34453;52.198;5.004;2023-05-19T04:35:40;8.63;;;6.25;;
48667;SDS011;34453;52.198;5.004;2023-05-19T04:38:07;13.68;;;5.32;;
48667;SDS011;34453;52.198;5.004;2023-05-19T04:40:33;8.75;;;5.45;;
48667;SDS011;34453;52.198;5.004;2023-05-19T04:42:59;13.00;;;6.20;;
48667;SDS011;34453;52.198;5.004;2023-05-19T04:45:25;9.43;;;6.05;;
48667;SDS011;34453;52.198;5.004;2023-05-19T04:47:51;10.32;;;5.78;;
48667;SDS011;34453;52.198;5.004;2023-05-19T04:50:21;8.57;;;6.47;;
48667;SDS011;34453;52.198;5.004;2023-05-19T04:52:47;7.85;;;5.85;;
48667;SDS011;34453;52.198;5.004;2023-05-19T04:55:12;8.95;;;5.82;;
48667;SDS011;34453;52.198;5.004;2023-05-19T04:57:38;11.35;;;7.35;;
48667;SDS011;34453;52.198;5.004;2023-05-19T05:00:04;10.60;;;6.40;;
48667;SDS011;34453;52.198;5.004;2023-05-19T05:02:32;10.68;;;6.90;;
48667;SDS011;34453;52.198;5.004;2023-05-19T05:04:58;9.18;;;5.90;;
48667;SDS011;34453;52.198;5.004;2023-05-19T05:07:23;8.80;;;5.93;;
48667;SDS011;34453;52.198;5.004;2023-05-19T05:09:49;11.13;;;5.93;;
48667;SDS011;34453;52.198;5.004;2023-05-19T05:12:15;10.60;;;6.43;;
48667;SDS011;34453;52.198;5.004;2023-05-19T05:14:42;8.80;;;6.43;;
48667;SDS011;34453;52.198;5.004;2023-05-19T05:17:08;12.48;;;6.68;;
48667;SDS011;34453;52.198;5.004;2023-05-19T05:19:34;12.82;;;6.22;;
48667;SDS011;34453;52.198;5.004;2023-05-19T05:22:00;9.48;;;6.57;;
48667;SDS011;34453;52.198;5.004;2023-05-19T05:24:26;11.70;;;8.15;;
48667;SDS011;34453;52.198;5.004;2023-05-19T05:26:51;11.50;;;6.22;;
48667;SDS011;34453;52.198;5.004;2023-05-19T05:29:18;13.50;;;8.45;;
48667;SDS011;34453;52.198;5.004;2023-05-19T05:31:43;11.15;;;7.07;;
48667;SDS011;34453;52.198;5.004;2023-05-19T05:34:09;15.50;;;6.65;;
48667;SDS011;34453;52.198;5.004;2023-05-19T05:36:35;13.15;;;7.05;;
48667;SDS011;34453;52.198;5.004;2023-05-19T05:39:00;11.48;;;7.68;;
48667;SDS011;34453;52.198;5.004;2023-05-19T05:41:26;11.80;;;7.05;;
48667;SDS011;34453;52.198;5.004;2023-05-19T05:43:53;13.70;;;6.88;;
48667;SDS011;34453;52.198;5.004;2023-05-19T05:46:19;10.50;;;6.75;;
48667;SDS011;34453;52.198;5.004;2023-05-19T05:48:44;7.20;;;6.50;;
48667;SDS011;34453;52.198;5.004;2023-05-19T05:51:11;21.10;;;7.07;;
48667;SDS011;34453;52.198;5.004;2023-05-19T05:53:39;12.85;;;6.43;;
48667;SDS011;34453;52.198;5.004;2023-05-19T05:56:09;14.45;;;6.90;;
48667;SDS011;34453;52.198;5.004;2023-05-19T05:58:35;13.55;;;7.32;;
48667;SDS011;34453;52.198;5.004;2023-05-19T06:01:01;12.73;;;7.53;;
48667;SDS011;34453;52.198;5.004;2023-05-19T06:03:28;17.95;;;7.82;;
48667;SDS011;34453;52.198;5.004;2023-05-19T06:05:55;12.48;;;9.10;;
48667;SDS011;34453;52.198;5.004;2023-05-19T06:08:21;16.38;;;8.63;;
48667;SDS011;34453;52.198;5.004;2023-05-19T06:10:46;12.57;;;8.00;;
48667;SDS011;34453;52.198;5.004;2023-05-19T06:13:12;13.98;;;8.05;;
48667;SDS011;34453;52.198;5.004;2023-05-19T06:15:37;13.80;;;9.15;;
48667;SDS011;34453;52.198;5.004;2023-05-19T06:18:03;14.40;;;7.78;;
48667;SDS011;34453;52.198;5.004;2023-05-19T06:20:28;16.45;;;8.57;;
48667;SDS011;34453;52.198;5.004;2023-05-19T06:22:54;11.90;;;7.97;;
48667;SDS011;34453;52.198;5.004;2023-05-19T06:25:19;23.15;;;7.80;;
48667;SDS011;34453;52.198;5.004;2023-05-19T06:27:45;11.40;;;7.72;;
48667;SDS011;34453;52.198;5.004;2023-05-19T06:30:10;16.25;;;7.93;;
48667;SDS011;34453;52.198;5.004;2023-05-19T06:32:36;17.20;;;8.63;;
48667;SDS011;34453;52.198;5.004;2023-05-19T06:35:02;15.43;;;8.07;;
48667;SDS011;34453;52.198;5.004;2023-05-19T06:37:28;15.27;;;7.78;;
48667;SDS011;34453;52.198;5.004;2023-05-19T06:39:53;21.40;;;7.82;;
48667;SDS011;34453;52.198;5.004;2023-05-19T06:42:19;12.02;;;7.95;;
48667;SDS011;34453;52.198;5.004;2023-05-19T06:44:47;17.00;;;7.65;;
48667;SDS011;34453;52.198;5.004;2023-05-19T06:47:13;14.05;;;8.55;;
48667;SDS011;34453;52.198;5.004;2023-05-19T06:49:38;12.25;;;7.40;;
48667;SDS011;34453;52.198;5.004;2023-05-19T06:52:04;17.50;;;6.97;;
48667;SDS011;34453;52.198;5.004;2023-05-19T06:54:30;11.85;;;6.32;;
48667;SDS011;34453;52.198;5.004;2023-05-19T06:56:55;15.55;;;7.30;;
48667;SDS011;34453;52.198;5.004;2023-05-19T06:59:20;13.85;;;7.03;;
48667;SDS011;34453;52.198;5.004;2023-05-19T07:01:47;15.35;;;7.43;;
48667;SDS011;34453;52.198;5.004;2023-05-19T07:04:12;13.48;;;6.70;;
48667;SDS011;34453;52.198;5.004;2023-05-19T07:06:38;10.88;;;6.55;;
48667;SDS011;34453;52.198;5.004;2023-05-19T07:09:03;13.02;;;6.28;;
48667;SDS011;34453;52.198;5.004;2023-05-19T07:11:29;7.63;;;5.43;;
48667;SDS011;34453;52.198;5.004;2023-05-19T07:13:55;14.98;;;6.18;;
48667;SDS011;34453;52.198;5.004;2023-05-19T07:16:20;8.70;;;5.07;;
48667;SDS011;34453;52.198;5.004;2023-05-19T07:18:46;10.70;;;5.88;;
48667;SDS011;34453;52.198;5.004;2023-05-19T07:21:11;9.20;;;5.30;;
48667;SDS011;34453;52.198;5.004;2023-05-19T07:23:36;16.58;;;6.03;;
48667;SDS011;34453;52.198;5.004;2023-05-19T07:26:02;10.63;;;5.05;;
48667;SDS011;34453;52.198;5.004;2023-05-19T07:28:27;8.73;;;4.05;;
48667;SDS011;34453;52.198;5.004;2023-05-19T07:30:53;11.73;;;5.25;;
48667;SDS011;34453;52.198;5.004;2023-05-19T07:33:18;11.45;;;4.47;;
48667;SDS011;34453;52.198;5.004;2023-05-19T07:35:44;7.43;;;4.60;;
48667;SDS011;34453;52.198;5.004;2023-05-19T07:38:10;9.18;;;4.60;;
48667;SDS011;34453;52.198;5.004;2023-05-19T07:40:36;6.05;;;4.30;;
48667;SDS011;34453;52.198;5.004;2023-05-19T07:43:01;8.15;;;3.55;;
48667;SDS011;34453;52.198;5.004;2023-05-19T07:45:27;9.15;;;3.20;;
48667;SDS011;34453;52.198;5.004;2023-05-19T07:47:52;7.57;;;3.40;;
48667;SDS011;34453;52.198;5.004;2023-05-19T07:50:18;12.00;;;4.13;;
48667;SDS011;34453;52.198;5.004;2023-05-19T07:52:44;6.68;;;3.10;;
48667;SDS011;34453;52.198;5.004;2023-05-19T07:55:09;3.75;;;3.03;;
48667;SDS011;34453;52.198;5.004;2023-05-19T07:57:35;6.45;;;3.40;;
48667;SDS011;34453;52.198;5.004;2023-05-19T08:00:01;14.05;;;3.72;;
48667;SDS011;34453;52.198;5.004;2023-05-19T08:02:31;4.95;;;2.70;;
48667;SDS011;34453;52.198;5.004;2023-05-19T08:04:57;8.52;;;2.40;;
48667;SDS011;34453;52.198;5.004;2023-05-19T08:07:23;6.13;;;1.73;;
48667;SDS011;34453;52.198;5.004;2023-05-19T08:09:48;3.70;;;2.67;;
48667;SDS011;34453;52.198;5.004;2023-05-19T08:12:14;6.57;;;2.53;;
48667;SDS011;34453;52.198;5.004;2023-05-19T08:14:39;11.20;;;2.47;;
48667;SDS011;34453;52.198;5.004;2023-05-19T08:17:04;12.35;;;2.38;;
48667;SDS011;34453;52.198;5.004;2023-05-19T08:19:30;9.05;;;2.85;;
48667;SDS011;34453;52.198;5.004;2023-05-19T08:21:56;4.90;;;2.33;;
48667;SDS011;34453;52.198;5.004;2023-05-19T08:24:22;8.77;;;2.25;;
48667;SDS011;34453;52.198;5.004;2023-05-19T08:26:47;11.40;;;3.33;;
48667;SDS011;34453;52.198;5.004;2023-05-19T08:29:13;10.38;;;2.90;;
48667;SDS011;34453;52.198;5.004;2023-05-19T08:31:38;5.10;;;2.30;;
48667;SDS011;34453;52.198;5.004;2023-05-19T08:34:04;3.65;;;2.35;;
48667;SDS011;34453;52.198;5.004;2023-05-19T08:36:30;5.53;;;2.33;;
48667;SDS011;34453;52.198;5.004;2023-05-19T08:38:55;10.00;;;2.20;;
48667;SDS011;34453;52.198;5.004;2023-05-19T08:41:21;8.48;;;2.60;;
48667;SDS011;34453;52.198;5.004;2023-05-19T08:43:47;7.10;;;2.25;;
48667;SDS011;34453;52.198;5.004;2023-05-19T08:46:13;3.33;;;2.03;;
48667;SDS011;34453;52.198;5.004;2023-05-19T08:48:41;6.78;;;3.13;;
48667;SDS011;34453;52.198;5.004;2023-05-19T08:54:13;4.30;;;2.10;;
48667;SDS011;34453;52.198;5.004;2023-05-19T08:56:40;8.23;;;2.60;;
48667;SDS011;34453;52.198;5.004;2023-05-19T08:59:07;5.07;;;2.40;;
48667;SDS011;34453;52.198;5.004;2023-05-19T09:01:33;5.20;;;1.85;;
48667;SDS011;34453;52.198;5.004;2023-05-19T09:03:58;6.53;;;1.95;;
48667;SDS011;34453;52.198;5.004;2023-05-19T09:06:25;5.70;;;1.50;;
48667;SDS011;34453;52.198;5.004;2023-05-19T09:08:51;4.72;;;2.28;;
48667;SDS011;34453;52.198;5.004;2023-05-19T09:11:16;5.35;;;2.17;;
48667;SDS011;34453;52.198;5.004;2023-05-19T09:13:41;21.70;;;2.65;;
48667;SDS011;34453;52.198;5.004;2023-05-19T09:16:07;5.85;;;1.85;;
48667;SDS011;34453;52.198;5.004;2023-05-19T09:18:33;2.88;;;1.35;;
48667;SDS011;34453;52.198;5.004;2023-05-19T09:20:59;6.50;;;1.77;;
48667;SDS011;34453;52.198;5.004;2023-05-19T09:23:32;12.18;;;3.22;;
48667;SDS011;34453;52.198;5.004;2023-05-19T09:26:02;18.05;;;2.13;;
48667;SDS011;34453;52.198;5.004;2023-05-19T09:28:32;8.27;;;2.00;;
48667;SDS011;34453;52.198;5.004;2023-05-19T09:30:58;7.88;;;2.03;;
48667;SDS011;34453;52.198;5.004;2023-05-19T09:33:25;3.30;;;1.50;;
48667;SDS011;34453;52.198;5.004;2023-05-19T09:35:52;7.60;;;3.20;;
48667;SDS011;34453;52.198;5.004;2023-05-19T09:38:21;7.57;;;2.47;;
48667;SDS011;34453;52.198;5.004;2023-05-19T09:40:48;7.32;;;2.33;;
48667;SDS011;34453;52.198;5.004;2023-05-19T09:43:14;7.68;;;2.20;;
48667;SDS011;34453;52.198;5.004;2023-05-19T09:45:40;5.97;;;2.03;;
48667;SDS011;34453;52.198;5.004;2023-05-19T09:48:06;4.03;;;2.63;;
48667;SDS011;34453;52.198;5.004;2023-05-19T09:50:31;2.45;;;2.03;;
48667;SDS011;34453;52.198;5.004;2023-05-19T09:52:57;5.57;;;2.25;;
48667;SDS011;34453;52.198;5.004;2023-05-19T09:55:25;5.05;;;2.10;;
48667;SDS011;34453;52.198;5.004;2023-05-19T09:57:53;3.58;;;1.67;;
48667;SDS011;34453;52.198;5.004;2023-05-19T10:00:24;3.90;;;1.90;;
48667;SDS011;34453;52.198;5.004;2023-05-19T10:02:51;7.32;;;2.35;;
48667;SDS011;34453;52.198;5.004;2023-05-19T10:05:18;8.02;;;2.97;;
48667;SDS011;34453;52.198;5.004;2023-05-19T10:07:44;6.45;;;1.98;;
48667;SDS011;34453;52.198;5.004;2023-05-19T10:10:13;1.92;;;1.55;;
48667;SDS011;34453;52.198;5.004;2023-05-19T10:12:39;8.50;;;2.30;;
48667;SDS011;34453;52.198;5.004;2023-05-19T10:15:09;8.60;;;2.10;;
48667;SDS011;34453;52.198;5.004;2023-05-19T10:17:39;4.70;;;1.95;;
48667;SDS011;34453;52.198;5.004;2023-05-19T10:20:09;9.07;;;2.38;;
48667;SDS011;34453;52.198;5.004;2023-05-19T10:22:37;11.02;;;3.22;;
48667;SDS011;34453;52.198;5.004;2023-05-19T10:25:04;5.32;;;2.30;;
48667;SDS011;34453;52.198;5.004;2023-05-19T10:27:31;7.00;;;3.05;;
48667;SDS011;34453;52.198;5.004;2023-05-19T10:30:11;3.97;;;2.15;;
48667;SDS011;34453;52.198;5.004;2023-05-19T10:32:41;11.38;;;2.58;;
48667;SDS011;34453;52.198;5.004;2023-05-19T10:45:51;13.63;;;2.90;;
48667;SDS011;34453;52.198;5.004;2023-05-19T10:48:20;8.05;;;2.90;;
48667;SDS011;34453;52.198;5.004;2023-05-19T10:50:47;8.00;;;2.30;;
48667;SDS011;34453;52.198;5.004;2023-05-19T10:53:13;6.95;;;3.15;;
48667;SDS011;34453;52.198;5.004;2023-05-19T10:55:45;11.52;;;3.05;;
48667;SDS011;34453;52.198;5.004;2023-05-19T10:58:14;6.90;;;1.92;;
48667;SDS011;34453;52.198;5.004;2023-05-19T11:00:40;8.55;;;2.95;;
48667;SDS011;34453;52.198;5.004;2023-05-19T11:03:12;6.80;;;2.17;;
48667;SDS011;34453;52.198;5.004;2023-05-19T11:05:39;8.82;;;3.58;;
48667;SDS011;34453;52.198;5.004;2023-05-19T11:08:05;5.72;;;2.30;;
48667;SDS011;34453;52.198;5.004;2023-05-19T11:10:35;4.78;;;2.70;;
48667;SDS011;34453;52.198;5.004;2023-05-19T11:13:01;6.25;;;2.15;;
48667;SDS011;34453;52.198;5.004;2023-05-19T11:15:28;6.80;;;2.75;;
48667;SDS011;34453;52.198;5.004;2023-05-19T11:17:59;5.32;;;2.50;;
48667;SDS011;34453;52.198;5.004;2023-05-19T11:20:27;3.97;;;2.20;;
48667;SDS011;34453;52.198;5.004;2023-05-19T11:28:11;2.47;;;1.80;;
48667;SDS011;34453;52.198;5.004;2023-05-19T11:30:42;17.52;;;2.80;;
48667;SDS011;34453;52.198;5.004;2023-05-19T11:33:08;6.25;;;2.20;;
48667;SDS011;34453;52.198;5.004;2023-05-19T11:35:35;7.15;;;2.67;;
48667;SDS011;34453;52.198;5.004;2023-05-19T11:38:01;5.45;;;3.05;;
48667;SDS011;34453;52.198;5.004;2023-05-19T11:40:27;3.05;;;2.47;;
48667;SDS011;34453;52.198;5.004;2023-05-19T11:42:54;4.50;;;2.33;;
48667;SDS011;34453;52.198;5.004;2023-05-19T11:45:23;8.60;;;2.83;;
48667;SDS011;34453;52.198;5.004;2023-05-19T11:47:50;7.93;;;2.78;;
48667;SDS011;34453;52.198;5.004;2023-05-19T11:50:16;4.75;;;2.58;;
48667;SDS011;34453;52.198;5.004;2023-05-19T11:52:45;12.02;;;3.35;;
48667;SDS011;34453;52.198;5.004;2023-05-19T11:55:15;6.05;;;3.03;;
48667;SDS011;34453;52.198;5.004;2023-05-19T11:57:41;3.17;;;2.33;;
48667;SDS011;34453;52.198;5.004;2023-05-19T12:00:14;8.27;;;2.65;;
48667;SDS011;34453;52.198;5.004;2023-05-19T12:02:40;10.50;;;3.40;;
48667;SDS011;34453;52.198;5.004;2023-05-19T12:05:05;7.57;;;2.22;;
48667;SDS011;34453;52.198;5.004;2023-05-19T12:07:31;6.38;;;2.67;;
48667;SDS011;34453;52.198;5.004;2023-05-19T12:09:57;6.63;;;2.33;;
48667;SDS011;34453;52.198;5.004;2023-05-19T12:12:23;9.25;;;2.60;;
48667;SDS011;34453;52.198;5.004;2023-05-19T12:14:50;7.90;;;2.85;;
48667;SDS011;34453;52.198;5.004;2023-05-19T12:17:19;7.65;;;3.03;;
48667;SDS011;34453;52.198;5.004;2023-05-19T12:19:48;6.05;;;2.40;;
48667;SDS011;34453;52.198;5.004;2023-05-19T12:22:17;5.05;;;2.53;;
48667;SDS011;34453;52.198;5.004;2023-05-19T12:24:44;12.43;;;3.95;;
48667;SDS011;34453;52.198;5.004;2023-05-19T12:27:23;9.57;;;3.03;;
48667;SDS011;34453;52.198;5.004;2023-05-19T12:29:53;11.97;;;2.97;;
48667;SDS011;34453;52.198;5.004;2023-05-19T12:32:26;9.07;;;2.47;;
48667;SDS011;34453;52.198;5.004;2023-05-19T12:34:57;5.45;;;2.22;;
48667;SDS011;34453;52.198;5.004;2023-05-19T12:37:27;12.00;;;2.60;;
48667;SDS011;34453;52.198;5.004;2023-05-19T12:39:54;9.98;;;2.55;;
48667;SDS011;34453;52.198;5.004;2023-05-19T12:42:20;5.28;;;2.95;;
48667;SDS011;34453;52.198;5.004;2023-05-19T12:44:47;3.58;;;2.60;;
48667;SDS011;34453;52.198;5.004;2023-05-19T12:47:19;4.78;;;2.13;;
48667;SDS011;34453;52.198;5.004;2023-05-19T12:52:29;6.03;;;1.90;;
48667;SDS011;34453;52.198;5.004;2023-05-19T12:55:05;6.32;;;2.97;;
48667;SDS011;34453;52.198;5.004;2023-05-19T12:57:35;9.18;;;2.60;;
48667;SDS011;34453;52.198;5.004;2023-05-19T13:00:05;4.53;;;2.00;;
48667;SDS011;34453;52.198;5.004;2023-05-19T13:02:34;3.47;;;1.80;;
48667;SDS011;34453;52.198;5.004;2023-05-19T13:05:18;5.32;;;2.05;;
48667;SDS011;34453;52.198;5.004;2023-05-19T13:10:23;7.90;;;2.85;;
48667;SDS011;34453;52.198;5.004;2023-05-19T13:12:52;13.02;;;3.33;;
48667;SDS011;34453;52.198;5.004;2023-05-19T13:15:20;7.07;;;2.33;;
48667;SDS011;34453;52.198;5.004;2023-05-19T13:17:55;5.80;;;2.10;;
48667;SDS011;34453;52.198;5.004;2023-05-19T13:20:21;4.60;;;2.22;;
48667;SDS011;34453;52.198;5.004;2023-05-19T13:22:47;5.63;;;2.60;;
48667;SDS011;34453;52.198;5.004;2023-05-19T13:25:13;5.15;;;2.33;;
48667;SDS011;34453;52.198;5.004;2023-05-19T13:27:39;9.32;;;2.85;;
48667;SDS011;34453;52.198;5.004;2023-05-19T13:30:05;11.52;;;3.10;;
48667;SDS011;34453;52.198;5.004;2023-05-19T13:32:31;6.65;;;2.20;;
48667;SDS011;34453;52.198;5.004;2023-05-19T13:34:56;9.30;;;2.15;;
48667;SDS011;34453;52.198;5.004;2023-05-19T13:37:22;10.27;;;2.75;;
48667;SDS011;34453;52.198;5.004;2023-05-19T13:39:51;9.18;;;2.15;;
48667;SDS011;34453;52.198;5.004;2023-05-19T13:42:17;11.98;;;2.75;;
48667;SDS011;34453;52.198;5.004;2023-05-19T13:44:45;5.40;;;2.40;;
48667;SDS011;34453;52.198;5.004;2023-05-19T13:47:11;4.03;;;2.10;;
48667;SDS011;34453;52.198;5.004;2023-05-19T13:49:37;9.23;;;2.72;;
48667;SDS011;34453;52.198;5.004;2023-05-19T13:52:03;7.50;;;2.63;;
48667;SDS011;34453;52.198;5.004;2023-05-19T13:54:30;7.47;;;2.63;;
48667;SDS011;34453;52.198;5.004;2023-05-19T13:56:56;12.02;;;2.65;;
48667;SDS011;34453;52.198;5.004;2023-05-19T13:59:22;11.02;;;3.15;;
48667;SDS011;34453;52.198;5.004;2023-05-19T14:01:49;11.73;;;3.17;;
48667;SDS011;34453;52.198;5.004;2023-05-19T14:04:16;6.90;;;1.88;;
48667;SDS011;34453;52.198;5.004;2023-05-19T14:06:42;9.07;;;2.65;;
48667;SDS011;34453;52.198;5.004;2023-05-19T14:09:08;6.50;;;2.72;;
48667;SDS011;34453;52.198;5.004;2023-05-19T14:11:34;6.53;;;2.15;;
48667;SDS011;34453;52.198;5.004;2023-05-19T14:13:59;3.20;;;2.22;;
48667;SDS011;34453;52.198;5.004;2023-05-19T14:16:27;10.40;;;3.08;;
48667;SDS011;34453;52.198;5.004;2023-05-19T14:18:52;8.10;;;2.40;;
48667;SDS011;34453;52.198;5.004;2023-05-19T14:21:18;5.85;;;2.40;;
48667;SDS011;34453;52.198;5.004;2023-05-19T14:23:44;6.90;;;2.70;;
48667;SDS011;34453;52.198;5.004;2023-05-19T14:26:10;5.50;;;2.83;;
48667;SDS011;34453;52.198;5.004;2023-05-19T14:28:35;13.40;;;3.33;;
48667;SDS011;34453;52.198;5.004;2023-05-19T14:31:01;9.23;;;2.40;;
48667;SDS011;34453;52.198;5.004;2023-05-19T14:33:27;5.25;;;2.15;;
48667;SDS011;34453;52.198;5.004;2023-05-19T14:35:52;7.25;;;3.03;;
48667;SDS011;34453;52.198;5.004;2023-05-19T14:38:19;6.40;;;1.77;;
48667;SDS011;34453;52.198;5.004;2023-05-19T14:40:44;6.82;;;2.35;;
48667;SDS011;34453;52.198;5.004;2023-05-19T14:43:13;8.43;;;3.35;;
48667;SDS011;34453;52.198;5.004;2023-05-19T14:45:38;8.60;;;2.60;;
48667;SDS011;34453;52.198;5.004;2023-05-19T14:48:06;4.50;;;2.38;;
48667;SDS011;34453;52.198;5.004;2023-05-19T14:50:31;5.13;;;1.70;;
48667;SDS011;34453;52.198;5.004;2023-05-19T14:52:57;3.05;;;1.95;;
48667;SDS011;34453;52.198;5.004;2023-05-19T14:55:22;11.52;;;2.10;;
48667;SDS011;34453;52.198;5.004;2023-05-19T14:57:48;8.35;;;2.00;;
48667;SDS011;34453;52.198;5.004;2023-05-19T15:00:14;7.75;;;2.15;;
48667;SDS011;34453;52.198;5.004;2023-05-19T15:02:40;7.35;;;2.88;;
48667;SDS011;34453;52.198;5.004;2023-05-19T15:05:06;8.23;;;2.67;;
48667;SDS011;34453;52.198;5.004;2023-05-19T15:07:32;6.35;;;2.17;;
48667;SDS011;34453;52.198;5.004;2023-05-19T15:09:57;7.05;;;2.40;;
48667;SDS011;34453;52.198;5.004;2023-05-19T15:12:23;9.50;;;2.45;;
48667;SDS011;34453;52.198;5.004;2023-05-19T15:14:48;4.13;;;2.53;;
48667;SDS011;34453;52.198;5.004;2023-05-19T15:17:14;3.50;;;1.83;;
48667;SDS011;34453;52.198;5.004;2023-05-19T15:19:39;6.15;;;1.85;;
48667;SDS011;34453;52.198;5.004;2023-05-19T15:22:06;8.65;;;3.03;;